Ask Your Question

yasin lachiny's profile - karma

yasin lachiny's karma change log

10 0 Volume did not finish being created even after we waited some seconds ( 2020-07-27 14:55:45 -0500 )

0 -2 Unable to ssh into instance, route info failed ( 2020-01-01 04:16:39 -0500 )

0 -2 How to deploy openstack for production ? ( 2019-12-29 12:33:08 -0500 )

0 -2 Openstack queen instance creation error - No valid host was found. ( 2019-11-24 03:18:21 -0500 )

0 -2 Network allocation time ( 2019-11-19 08:18:35 -0500 )

2 0 TripleO on ubuntu platform ( 2019-10-27 05:30:43 -0500 )

0 -2 TripleO on ubuntu platform ( 2019-10-27 05:30:32 -0500 )

0 -2 how to install kolla ansible with 5 mon ( 2019-10-14 07:51:03 -0500 )

10 0 What is the best OpenStack tool/report to see our instance and host CPU, RAM, utilization? ( 2019-08-22 18:37:21 -0500 )

0 -10 What is the best OpenStack tool/report to see our instance and host CPU, RAM, utilization? ( 2019-08-22 18:37:20 -0500 )

10 0 What is the best OpenStack tool/report to see our instance and host CPU, RAM, utilization? ( 2019-08-22 18:37:20 -0500 )

2 0 HEAT template with OS::Cinder::Quota failing ( 2019-08-19 02:18:54 -0500 )

0 -2 HEAT template with OS::Cinder::Quota failing ( 2019-08-19 02:18:48 -0500 )

2 0 Can I set quotas for CPU-hours, RAM(MB-hr), Disk (GB-hr)? ( 2019-08-10 15:07:47 -0500 )

0 -2 Can I set quotas for CPU-hours, RAM(MB-hr), Disk (GB-hr)? ( 2019-08-10 15:07:12 -0500 )

0 -2 openstack queens without container ( 2019-08-05 16:26:18 -0500 )

2 0 How to get Memory Usage from Windows Server 2012 R2 in OpenStack ( 2019-08-05 06:08:10 -0500 )

2 0 windows 10 hyper-v as compute node ( 2019-08-05 06:07:46 -0500 )

0 -2 windows 10 hyper-v as compute node ( 2019-08-05 06:07:38 -0500 )

0 -2 How to get Memory Usage from Windows Server 2012 R2 in OpenStack ( 2019-08-05 06:05:50 -0500 )

0 -2 How to create openstack instance using script file in crontab???? ( 2019-07-19 08:50:50 -0500 )

0 -2 How to switch to different backend db from gnocchi in ceilometer ( 2019-07-17 15:55:44 -0500 )

0 -2 Unable to access horizon dashboar ( 2019-07-15 04:53:58 -0500 )

0 -2 List the available space in all cinder-volume? ( 2019-07-14 04:28:02 -0500 )

0 -2 how to get current usage details of cinder volume? ( 2019-07-14 04:25:55 -0500 )

0 -2 about volume usage of cinder ( 2019-07-13 13:19:42 -0500 )

0 -2 We are planning to deploy new OpenStack environment ( 2019-07-07 08:45:20 -0500 )

0 -2 Please specify data store No default data store is defined ( 2019-07-05 14:07:50 -0500 )

0 -2 magnum in newton ( 2019-07-05 12:06:25 -0500 )

0 -2 Missing auth plugin for endpoint url ( 2019-07-03 01:44:18 -0500 )

0 -2 How to setup Openstack in HA mode. ( 2019-07-02 09:48:30 -0500 )

0 -2 Can't ping floating or instance ip ( 2019-07-01 05:47:39 -0500 )

2 0 Instance associated with private network does not receive ip address after restarting server ( 2019-06-30 11:32:25 -0500 )

0 -2 Instance associated with private network does not receive ip address after restarting server ( 2019-06-30 11:32:21 -0500 )

0 -2 how can i get username and password of a qcow2 image. ( 2019-06-30 03:18:36 -0500 )

0 -2 Autoscaling and load balancing with Heat ( 2019-04-29 03:31:56 -0500 )

2 0 masakari with devstack rocky installation set up ( 2019-04-10 02:58:42 -0500 )

0 -2 masakari with devstack rocky installation set up ( 2019-04-10 02:58:30 -0500 )

2 0 how i can run kubectl get pods in controller? ( 2019-04-07 12:34:30 -0500 )

0 -2 how i can run kubectl get pods in controller? ( 2019-04-07 12:34:29 -0500 )

2 0 how i can run kubectl get pods in controller? ( 2019-04-07 12:34:28 -0500 )

0 10 How to resize VM root partition ( 2019-03-05 01:56:35 -0500 )

10 0 Why we choose OpenStack cloud platform to build a private cloud ? ( 2019-02-27 07:30:38 -0500 )

10 0 How to login in Ubuntu 16.02 Cloud QCOW2 .Img based VM. ( 2019-02-07 03:57:10 -0500 )

0 -2 magnum in newton ( 2019-01-29 10:00:12 -0500 )

2 0 magnum in newton ( 2019-01-29 10:00:09 -0500 )

10 0 error in nova verification and in neutron ( 2019-01-27 11:41:18 -0500 )

10 0 error in nova verification and in neutron ( 2019-01-27 00:38:00 -0500 )

10 0 magnum in newton ( 2019-01-24 15:50:00 -0500 )

2 0 ram usage no valid host was found ( 2019-01-24 02:32:28 -0500 )

10 0 why i should use openstack ( 2019-01-23 10:02:41 -0500 )

0 10 ceilometer-notification-agent 500 internal error ( 2018-12-29 05:36:36 -0500 )

2 0 alarming time ( 2018-12-21 06:13:45 -0500 )

10 0 ceilometer-notification-agent 500 internal error ( 2018-12-20 03:06:00 -0500 )

0 10 ceilometer-notification-agent 500 internal error ( 2018-12-20 03:05:54 -0500 )

0 10 unable to establish connection with glance registry ( 2018-12-19 23:48:12 -0500 )

10 0 unable to establish connection with glance registry ( 2018-12-19 23:47:31 -0500 )

0 10 unable to establish connection with glance registry ( 2018-12-19 23:37:59 -0500 )

10 0 unable to establish connection with glance registry ( 2018-12-19 14:52:15 -0500 )

10 0 Self service and Provider Networks in parallel ( 2018-12-19 05:44:05 -0500 )

10 0 Ansible: What are the network bridges for? ( 2018-12-18 08:07:50 -0500 )

10 0 gnocchi rocky ( 2018-12-17 06:50:23 -0500 )

0 10 gnocchi rocky ( 2018-12-17 06:50:19 -0500 )

10 0 can't ssh an instance ( 2018-12-11 07:43:37 -0500 )

10 0 heat-dashboard in queens ( 2018-12-08 06:58:03 -0500 )

0 10 queens dashboard ( 2018-12-02 14:47:36 -0500 )

15 0 How can I use Multiple controller nodes ( 2018-11-28 04:37:32 -0500 )

0 -2 heat-dashboard in queens ( 2018-11-27 11:01:29 -0500 )

2 0 heat-dashboard in queens ( 2018-11-27 11:00:32 -0500 )

0 -2 heat-dashboard in queens ( 2018-11-27 11:00:31 -0500 )

2 0 heat-dashboard in queens ( 2018-11-27 11:00:29 -0500 )

0 -2 heat-dashboard in queens ( 2018-11-27 11:00:28 -0500 )

2 0 heat-dashboard in queens ( 2018-11-26 11:06:05 -0500 )

10 0 Network option2 without network node ( 2018-11-26 05:09:27 -0500 )

10 0 There are no networks, routers, or connected instances to display. ( 2018-11-25 11:49:49 -0500 )

10 0 heat-dashboard in queens ( 2018-11-25 05:11:54 -0500 )

0 10 heat-dashboard in queens ( 2018-11-25 05:11:41 -0500 )

10 0 heat-dashboard in queens ( 2018-11-23 03:55:35 -0500 )

2 0 magnum vs kuberneties ( 2018-11-22 04:59:26 -0500 )

2 0 Use autohealing Heat template example in Newton ( 2018-11-20 12:52:15 -0500 )

0 -2 Use autohealing Heat template example in Newton ( 2018-11-20 12:52:13 -0500 )

2 0 Use autohealing Heat template example in Newton ( 2018-11-20 12:52:10 -0500 )

0 -2 Use autohealing Heat template example in Newton ( 2018-11-20 12:52:07 -0500 )

2 0 Use autohealing Heat template example in Newton ( 2018-11-20 12:52:05 -0500 )

10 0 three node installation ( 2018-11-14 08:11:16 -0500 )

0 10 three node installation ( 2018-11-14 08:11:14 -0500 )

10 0 Configure the provider interface ( 2018-11-14 03:26:23 -0500 )

15 0 gnocchi 500 internal server error ( 2018-11-14 02:45:57 -0500 )

0 -15 gnocchi 500 internal server error ( 2018-11-14 02:45:51 -0500 )

10 0 How can I use Multiple controller nodes ( 2018-11-13 10:56:52 -0500 )

10 0 Openstack Pike instance creation error - No valid host was found. ( 2018-11-13 03:49:22 -0500 )

15 0 gnocchi 500 internal server error ( 2018-11-12 12:08:17 -0500 )

0 -15 gnocchi 500 internal server error ( 2018-11-12 12:08:14 -0500 )

15 0 gnocchi 500 internal server error ( 2018-11-12 12:08:14 -0500 )

10 0 What is the best OpenStack tool/report to see our instance and host CPU, RAM, utilization? ( 2018-11-12 10:56:56 -0500 )

0 -10 What is the best OpenStack tool/report to see our instance and host CPU, RAM, utilization? ( 2018-11-12 10:18:37 -0500 )

0 -2 Error in dashboard service installation ( 2018-11-12 07:39:19 -0500 )

10 0 What is the best OpenStack tool/report to see our instance and host CPU, RAM, utilization? ( 2018-11-12 04:03:35 -0500 )

0 -10 What is the best OpenStack tool/report to see our instance and host CPU, RAM, utilization? ( 2018-11-12 04:03:34 -0500 )

10 0 What is the best OpenStack tool/report to see our instance and host CPU, RAM, utilization? ( 2018-11-12 04:03:32 -0500 )